13:34
Airports
History
Links
Donate
Help keep this website running!
PayPal
Bitcoin
This page is community maintained. The information is intended for PC simulator navigation or reference.
Always use approved charts for navigation.
SDAM
Amarais
Amarais (SDAM)
Campinas, São Paulo, Brazil (13069)
(C)
Lat/Lng:22° 51' 33.26" S / 47° 6' 29.46" W
-22.85924 / -47.108183
Elevation:2008'ft / 612mMSL
ID / ICAO:SDAM
Runways:1
Longest:16-34
Asphalt 1,207m / 3,960ft
Controlled:Yes
Nearby Weather13:00 GMT 2017-11-18
Nearby weather at SBKP, Sao Paulo Viracopos located 10.4 nautical miles from SDAM
Altimeter: 29.88
Visibility: 6.2 statute miles
Wind: 12 knots (from 360°)
Temp: 26°c / 79°f
Humidity: 61.4%

METAR: SBKP 181300Z 36012KT 9999 FEW025 BKN100 26/18 Q1012

(Powered by phpweather)
Airport Radio Frequencies
Tower: 125.77
Runway 16 / 34
Dimensions:1207 x 29m 3960' x 95'ft
Surface:Asphalt
Runway 16 [A]Runway 34 [B]
Heading:137°TH 317°TH
Lat:
Lng:
22° 51' 18.71"S
47° 6' 43.82"W
22° 51' 47.82"S
47° 6' 15.1"W
User Notes and Comments
22° 51' 33.26" S / 47° 6' 29.46" W
Distance To
Airport ID:
Nearby Airports
(C) Sao Paulo Viracopos 10.4 NM
SBKP ( WX ) S 189°
(U) AMERICANA 12.5 NM
SDAI NW 304°
4 Rodrigues 15.4 NM
SIQK WNW 290°
(U) Tres Marias 23.0 NM
SDWL S 174°
(C) Jundiai 24.6 NM
SBJD SSE 154°
4 Limeira 26.2 NM
SDYM NW 312°
4 Fazenda Herdade 30.4 NM
SDHE NNE 33°
VFR Chart
Flight Planning at SkyVector.com